Aeroporto :
LOGIN :

Iscrizione | Disclaimer

   EN    FR    IT 

 










Sommario :    VFR   VFR Marginale   IFR   IFR Intensivo   IFR Molto Intensivo
Visibilità : 
Base nubi : 
>= 8 km
>= 3000ft
5 / 8 km
1000 / 3000 ft
1500m / 5 km
500 / 1000 ft
800 / 1500m
200 / 500 ft
< 800m
< 200 ft
Simboli :   Temporali  Nebbia  Neve Forte  Precipitazioni Forti  Vento > 20 kt
SIGMETs :   Varie  Temporali  Ghiacco  Turbolenza  Onda orograficha  Ceneri Vulcaniche







- Altitudine del aeroporto : 266 ft
- Codice IATA : NCL
- Carte del aeroporto


EGNT - Newcastle

ULTIMO METAR :
  • 220250Z 25005KT 9999 FEW035 05/05 Q1018

METARs OBSOLETI :
  • 220150Z VRB02KT 9999 FEW035 05/04 Q1018
  • 220120Z 24003KT 9999 FEW034 05/05 Q1018
  • 220050Z 24004KT 9999 FEW010 06/05 Q1018

TAF AMD TAF EGNT
Valido dal 22 a 02 ore il 23 a 00 ore UTC


220205Z 2202/2224 VRB03KT 9999 FEW030
BECMG 2203/2206 26010KT
ATIS : +44 191 214 3400
Nessun NOTAM noto per questo aeroporto.



MetMap, La meteo Aeronautica in un colpo d'occhio ! - Copyright ORBIFLY Dicembre 2007 - Disclaimer

ORBIFLY MET'MAP TEAM :

Programmazione e sviluppo : Alexandra Zaïnal
Concezione e sviluppo : Baudouin d'Aumeries
Co-Programmazione e sviluppo : Marc-Olivier Méhu
Supporto tecnico e logistico : Manuel Goepfert
Aiuto per la traduzione : Arnaldo La Scala

Contatto : metmap@orbifly.com




FONTI E CREDITI :

   NOAA